Alert Bay, Canada
Current Conditions -  °F | °C
As of 9:00 AM on Thursday 23 Oct 2014 (Local Time) from CYZT Reporting Station
Broken Clouds Broken Clouds  
Wind Chill: 41°   Ceiling: 22000
Heat Index: 41°   Visibility: 20mi
Dew Point: 41°   Wind: 0mph
Humidity: 100%   Direction: NA
Pressure: 29.65"   Gusts: NA
Location:  50.58°N, 126.92°W
Report Text: CYZT 231600Z 00000KT 20SM FEW050 BKN220 05/05 A2965 RMK SC1CI6 SLP041
Loading
Personal Weather Stations






























Interactive Weather Map
Tropical Storm Tracking
New forecast layout! Learn more

10-Day Weather Forecast

Advertisements
Track Severe Weather on mobile